sensor_id;sensor_type;location;lat;lon;timestamp;temperature;humidity
22917;DHT22;11624;53.250;7.456;2023-08-31T00:02:23;17.59;58.95
22917;DHT22;11624;53.250;7.456;2023-08-31T00:04:52;17.59;58.94
22917;DHT22;11624;53.250;7.456;2023-08-31T00:07:21;17.58;58.96
22917;DHT22;11624;53.250;7.456;2023-08-31T00:09:51;17.55;58.99
22917;DHT22;11624;53.250;7.456;2023-08-31T00:12:19;17.56;58.99
22917;DHT22;11624;53.250;7.456;2023-08-31T00:14:49;17.54;58.97
22917;DHT22;11624;53.250;7.456;2023-08-31T00:17:18;17.53;59.03
22917;DHT22;11624;53.250;7.456;2023-08-31T00:19:46;17.52;59.15
22917;DHT22;11624;53.250;7.456;2023-08-31T00:22:14;17.51;59.12
22917;DHT22;11624;53.250;7.456;2023-08-31T00:24:42;17.53;59.15
22917;DHT22;11624;53.250;7.456;2023-08-31T00:27:11;17.52;59.13
22917;DHT22;11624;53.250;7.456;2023-08-31T00:29:42;17.53;59.23
22917;DHT22;11624;53.250;7.456;2023-08-31T00:32:16;17.56;59.22
22917;DHT22;11624;53.250;7.456;2023-08-31T00:34:44;17.58;59.21
22917;DHT22;11624;53.250;7.456;2023-08-31T00:37:12;17.59;59.28
22917;DHT22;11624;53.250;7.456;2023-08-31T00:39:40;17.60;59.33
22917;DHT22;11624;53.250;7.456;2023-08-31T00:42:13;17.60;59.17
22917;DHT22;11624;53.250;7.456;2023-08-31T00:44:41;17.65;59.30
22917;DHT22;11624;53.250;7.456;2023-08-31T00:47:09;17.67;59.16
22917;DHT22;11624;53.250;7.456;2023-08-31T00:49:37;17.64;59.19
22917;DHT22;11624;53.250;7.456;2023-08-31T00:52:06;17.64;59.12
22917;DHT22;11624;53.250;7.456;2023-08-31T00:54:35;17.64;59.05
22917;DHT22;11624;53.250;7.456;2023-08-31T00:57:03;17.62;58.99
22917;DHT22;11624;53.250;7.456;2023-08-31T00:59:33;17.61;58.93
22917;DHT22;11624;53.250;7.456;2023-08-31T01:02:04;17.59;58.85
22917;DHT22;11624;53.250;7.456;2023-08-31T01:04:41;17.55;58.53
22917;DHT22;11624;53.250;7.456;2023-08-31T01:07:18;17.54;58.49
22917;DHT22;11624;53.250;7.456;2023-08-31T01:09:54;17.55;58.51
22917;DHT22;11624;53.250;7.456;2023-08-31T01:12:29;17.54;58.55
22917;DHT22;11624;53.250;7.456;2023-08-31T01:15:03;17.51;58.52
22917;DHT22;11624;53.250;7.456;2023-08-31T01:17:39;17.48;58.68
22917;DHT22;11624;53.250;7.456;2023-08-31T01:20:10;17.49;58.93
22917;DHT22;11624;53.250;7.456;2023-08-31T01:22:43;17.47;59.01
22917;DHT22;11624;53.250;7.456;2023-08-31T01:25:15;17.46;58.97
22917;DHT22;11624;53.250;7.456;2023-08-31T01:27:44;17.43;59.15
22917;DHT22;11624;53.250;7.456;2023-08-31T01:30:14;17.43;59.18
22917;DHT22;11624;53.250;7.456;2023-08-31T01:32:43;17.39;59.32
22917;DHT22;11624;53.250;7.456;2023-08-31T01:35:16;17.38;59.35
22917;DHT22;11624;53.250;7.456;2023-08-31T01:37:50;17.37;59.23
22917;DHT22;11624;53.250;7.456;2023-08-31T01:40:27;17.39;58.97
22917;DHT22;11624;53.250;7.456;2023-08-31T01:43:00;17.41;59.19
22917;DHT22;11624;53.250;7.456;2023-08-31T01:45:30;17.37;59.41
22917;DHT22;11624;53.250;7.456;2023-08-31T01:48:00;17.36;59.49
22917;DHT22;11624;53.250;7.456;2023-08-31T01:50:28;17.34;59.57
22917;DHT22;11624;53.250;7.456;2023-08-31T01:52:56;17.36;59.61
22917;DHT22;11624;53.250;7.456;2023-08-31T01:55:27;17.37;59.55
22917;DHT22;11624;53.250;7.456;2023-08-31T01:57:55;17.40;59.52
22917;DHT22;11624;53.250;7.456;2023-08-31T02:00:26;17.44;59.39
22917;DHT22;11624;53.250;7.456;2023-08-31T02:02:55;17.41;59.34
22917;DHT22;11624;53.250;7.456;2023-08-31T02:05:24;17.41;59.28
22917;DHT22;11624;53.250;7.456;2023-08-31T02:07:52;17.40;59.23
22917;DHT22;11624;53.250;7.456;2023-08-31T02:10:22;17.38;59.14
22917;DHT22;11624;53.250;7.456;2023-08-31T02:12:52;17.35;59.11
22917;DHT22;11624;53.250;7.456;2023-08-31T02:15:20;17.31;59.20
22917;DHT22;11624;53.250;7.456;2023-08-31T02:17:48;17.26;59.41
22917;DHT22;11624;53.250;7.456;2023-08-31T02:20:16;17.24;59.46
22917;DHT22;11624;53.250;7.456;2023-08-31T02:22:47;17.24;59.54
22917;DHT22;11624;53.250;7.456;2023-08-31T02:25:16;17.25;59.54
22917;DHT22;11624;53.250;7.456;2023-08-31T02:27:45;17.25;59.51
22917;DHT22;11624;53.250;7.456;2023-08-31T02:30:16;17.29;59.41
22917;DHT22;11624;53.250;7.456;2023-08-31T02:32:44;17.30;59.44
22917;DHT22;11624;53.250;7.456;2023-08-31T02:35:13;17.25;59.61
22917;DHT22;11624;53.250;7.456;2023-08-31T02:37:41;17.29;59.57
22917;DHT22;11624;53.250;7.456;2023-08-31T02:40:10;17.28;59.59
22917;DHT22;11624;53.250;7.456;2023-08-31T02:42:38;17.29;59.53
22917;DHT22;11624;53.250;7.456;2023-08-31T02:45:07;17.31;59.40
22917;DHT22;11624;53.250;7.456;2023-08-31T02:47:37;17.30;59.25
22917;DHT22;11624;53.250;7.456;2023-08-31T02:50:06;17.28;59.31
22917;DHT22;11624;53.250;7.456;2023-08-31T02:52:35;17.25;59.32
22917;DHT22;11624;53.250;7.456;2023-08-31T02:55:04;17.21;59.40
22917;DHT22;11624;53.250;7.456;2023-08-31T02:57:33;17.20;59.42
22917;DHT22;11624;53.250;7.456;2023-08-31T03:00:01;17.16;59.48
22917;DHT22;11624;53.250;7.456;2023-08-31T03:02:31;17.16;59.42
22917;DHT22;11624;53.250;7.456;2023-08-31T03:05:01;17.14;59.37
22917;DHT22;11624;53.250;7.456;2023-08-31T03:07:30;17.10;59.41
22917;DHT22;11624;53.250;7.456;2023-08-31T03:09:58;17.10;59.40
22917;DHT22;11624;53.250;7.456;2023-08-31T03:12:28;17.10;59.30
22917;DHT22;11624;53.250;7.456;2023-08-31T03:14:56;17.13;59.22
22917;DHT22;11624;53.250;7.456;2023-08-31T03:17:24;17.14;59.14
22917;DHT22;11624;53.250;7.456;2023-08-31T03:19:53;17.15;58.90
22917;DHT22;11624;53.250;7.456;2023-08-31T03:22:23;17.14;58.68
22917;DHT22;11624;53.250;7.456;2023-08-31T03:24:51;17.09;58.74
22917;DHT22;11624;53.250;7.456;2023-08-31T03:27:21;17.07;58.75
22917;DHT22;11624;53.250;7.456;2023-08-31T03:29:49;17.04;58.93
22917;DHT22;11624;53.250;7.456;2023-08-31T03:32:28;17.01;58.52
22917;DHT22;11624;53.250;7.456;2023-08-31T03:35:02;17.03;58.95
22917;DHT22;11624;53.250;7.456;2023-08-31T03:37:33;17.04;58.82
22917;DHT22;11624;53.250;7.456;2023-08-31T03:40:01;17.01;58.87
22917;DHT22;11624;53.250;7.456;2023-08-31T03:42:31;16.99;58.93
22917;DHT22;11624;53.250;7.456;2023-08-31T03:44:59;17.00;58.93
22917;DHT22;11624;53.250;7.456;2023-08-31T03:47:28;16.98;59.03
22917;DHT22;11624;53.250;7.456;2023-08-31T03:49:56;16.96;59.10
22917;DHT22;11624;53.250;7.456;2023-08-31T03:52:24;16.96;59.24
22917;DHT22;11624;53.250;7.456;2023-08-31T03:55:08;16.99;59.20
22917;DHT22;11624;53.250;7.456;2023-08-31T03:57:36;17.00;59.42
22917;DHT22;11624;53.250;7.456;2023-08-31T04:00:13;17.02;59.54
22917;DHT22;11624;53.250;7.456;2023-08-31T04:02:42;17.03;59.67
22917;DHT22;11624;53.250;7.456;2023-08-31T04:05:13;17.03;59.79
22917;DHT22;11624;53.250;7.456;2023-08-31T04:07:43;17.06;59.75
22917;DHT22;11624;53.250;7.456;2023-08-31T04:10:12;17.08;59.65
22917;DHT22;11624;53.250;7.456;2023-08-31T04:12:40;17.10;59.62
22917;DHT22;11624;53.250;7.456;2023-08-31T04:15:10;17.13;59.56
22917;DHT22;11624;53.250;7.456;2023-08-31T04:17:38;17.10;59.63
22917;DHT22;11624;53.250;7.456;2023-08-31T04:20:07;17.11;59.70
22917;DHT22;11624;53.250;7.456;2023-08-31T04:22:35;17.11;59.76
22917;DHT22;11624;53.250;7.456;2023-08-31T04:25:04;17.13;59.80
22917;DHT22;11624;53.250;7.456;2023-08-31T04:27:32;17.18;59.79
22917;DHT22;11624;53.250;7.456;2023-08-31T04:30:01;17.17;59.87
22917;DHT22;11624;53.250;7.456;2023-08-31T04:32:36;17.19;59.22
22917;DHT22;11624;53.250;7.456;2023-08-31T04:35:06;17.16;59.70
22917;DHT22;11624;53.250;7.456;2023-08-31T04:37:34;17.15;59.73
22917;DHT22;11624;53.250;7.456;2023-08-31T04:40:02;17.13;59.71
22917;DHT22;11624;53.250;7.456;2023-08-31T04:42:34;17.15;59.61
22917;DHT22;11624;53.250;7.456;2023-08-31T04:45:03;17.13;59.61
22917;DHT22;11624;53.250;7.456;2023-08-31T04:47:32;17.11;59.62
22917;DHT22;11624;53.250;7.456;2023-08-31T04:50:00;17.11;59.57
22917;DHT22;11624;53.250;7.456;2023-08-31T04:52:33;17.10;59.28
22917;DHT22;11624;53.250;7.456;2023-08-31T04:55:40;17.08;59.62
22917;DHT22;11624;53.250;7.456;2023-08-31T04:58:40;17.04;59.21
22917;DHT22;11624;53.250;7.456;2023-08-31T05:01:09;17.08;59.60
22917;DHT22;11624;53.250;7.456;2023-08-31T05:03:37;17.09;59.67
22917;DHT22;11624;53.250;7.456;2023-08-31T05:06:16;17.09;59.77
22917;DHT22;11624;53.250;7.456;2023-08-31T05:08:44;17.08;59.89
22917;DHT22;11624;53.250;7.456;2023-08-31T05:11:12;17.10;59.90
22917;DHT22;11624;53.250;7.456;2023-08-31T05:13:41;17.16;59.82
22917;DHT22;11624;53.250;7.456;2023-08-31T05:16:10;17.16;60.06
22917;DHT22;11624;53.250;7.456;2023-08-31T05:18:39;17.21;60.06
22917;DHT22;11624;53.250;7.456;2023-08-31T05:21:07;17.23;60.17
22917;DHT22;11624;53.250;7.456;2023-08-31T05:23:36;17.23;60.35
22917;DHT22;11624;53.250;7.456;2023-08-31T05:27:02;17.26;60.32
22917;DHT22;11624;53.250;7.456;2023-08-31T05:29:32;17.31;60.35
22917;DHT22;11624;53.250;7.456;2023-08-31T05:32:08;17.34;60.47
22917;DHT22;11624;53.250;7.456;2023-08-31T05:34:38;17.40;60.38
22917;DHT22;11624;53.250;7.456;2023-08-31T05:37:07;17.41;60.41
22917;DHT22;11624;53.250;7.456;2023-08-31T05:39:35;17.46;60.38
22917;DHT22;11624;53.250;7.456;2023-08-31T05:42:03;17.50;60.40
22917;DHT22;11624;53.250;7.456;2023-08-31T05:44:33;17.54;60.36
22917;DHT22;11624;53.250;7.456;2023-08-31T05:47:01;17.59;60.41
22917;DHT22;11624;53.250;7.456;2023-08-31T05:49:30;17.65;60.42
22917;DHT22;11624;53.250;7.456;2023-08-31T05:51:59;17.76;60.33
22917;DHT22;11624;53.250;7.456;2023-08-31T05:54:27;17.82;60.43
22917;DHT22;11624;53.250;7.456;2023-08-31T05:56:55;17.93;60.34
22917;DHT22;11624;53.250;7.456;2023-08-31T05:59:23;17.97;60.31
22917;DHT22;11624;53.250;7.456;2023-08-31T06:01:53;17.99;60.38
22917;DHT22;11624;53.250;7.456;2023-08-31T06:04:22;18.08;60.41
22917;DHT22;11624;53.250;7.456;2023-08-31T06:06:50;18.17;60.22
22917;DHT22;11624;53.250;7.456;2023-08-31T06:09:20;18.21;60.15
22917;DHT22;11624;53.250;7.456;2023-08-31T06:11:49;18.32;60.28
22917;DHT22;11624;53.250;7.456;2023-08-31T06:14:17;18.44;60.00
22917;DHT22;11624;53.250;7.456;2023-08-31T06:16:46;18.55;60.01
22917;DHT22;11624;53.250;7.456;2023-08-31T06:19:15;18.71;59.83
22917;DHT22;11624;53.250;7.456;2023-08-31T06:21:43;18.80;59.67
22917;DHT22;11624;53.250;7.456;2023-08-31T06:24:12;18.82;59.12
22917;DHT22;11624;53.250;7.456;2023-08-31T06:26:40;18.73;59.13
22917;DHT22;11624;53.250;7.456;2023-08-31T06:29:08;18.72;59.08
22917;DHT22;11624;53.250;7.456;2023-08-31T06:31:37;18.74;59.09
22917;DHT22;11624;53.250;7.456;2023-08-31T06:34:05;18.80;59.09
22917;DHT22;11624;53.250;7.456;2023-08-31T06:36:35;18.85;58.77
22917;DHT22;11624;53.250;7.456;2023-08-31T06:39:03;18.83;58.81
22917;DHT22;11624;53.250;7.456;2023-08-31T06:41:31;18.85;58.99
22917;DHT22;11624;53.250;7.456;2023-08-31T06:43:59;18.91;59.00
22917;DHT22;11624;53.250;7.456;2023-08-31T06:46:27;18.96;59.00
22917;DHT22;11624;53.250;7.456;2023-08-31T06:48:56;19.10;59.31
22917;DHT22;11624;53.250;7.456;2023-08-31T06:51:24;19.21;59.05
22917;DHT22;11624;53.250;7.456;2023-08-31T06:53:53;19.32;58.79
22917;DHT22;11624;53.250;7.456;2023-08-31T06:56:21;19.39;58.77
22917;DHT22;11624;53.250;7.456;2023-08-31T06:58:49;19.40;58.59
22917;DHT22;11624;53.250;7.456;2023-08-31T07:01:18;19.45;58.79
22917;DHT22;11624;53.250;7.456;2023-08-31T07:03:46;19.59;58.39
22917;DHT22;11624;53.250;7.456;2023-08-31T07:06:14;19.62;58.41
22917;DHT22;11624;53.250;7.456;2023-08-31T07:08:42;19.73;58.33
22917;DHT22;11624;53.250;7.456;2023-08-31T07:11:13;19.80;58.16
22917;DHT22;11624;53.250;7.456;2023-08-31T07:13:41;19.85;58.49
22917;DHT22;11624;53.250;7.456;2023-08-31T07:16:09;20.00;58.32
22917;DHT22;11624;53.250;7.456;2023-08-31T07:18:38;20.04;57.67
22917;DHT22;11624;53.250;7.456;2023-08-31T07:21:06;20.15;57.90
22917;DHT22;11624;53.250;7.456;2023-08-31T07:23:37;20.41;57.68
22917;DHT22;11624;53.250;7.456;2023-08-31T07:26:05;20.80;56.68
22917;DHT22;11624;53.250;7.456;2023-08-31T07:28:35;21.21;56.10
22917;DHT22;11624;53.250;7.456;2023-08-31T07:31:03;21.60;54.95
22917;DHT22;11624;53.250;7.456;2023-08-31T07:33:33;21.98;54.45
22917;DHT22;11624;53.250;7.456;2023-08-31T07:36:03;22.35;53.10
22917;DHT22;11624;53.250;7.456;2023-08-31T07:38:33;22.52;53.05
22917;DHT22;11624;53.250;7.456;2023-08-31T07:41:01;22.71;52.62
22917;DHT22;11624;53.250;7.456;2023-08-31T07:43:31;22.90;51.08
22917;DHT22;11624;53.250;7.456;2023-08-31T07:46:00;23.03;51.44
22917;DHT22;11624;53.250;7.456;2023-08-31T07:48:28;23.29;50.91
22917;DHT22;11624;53.250;7.456;2023-08-31T07:50:56;23.50;50.02
22917;DHT22;11624;53.250;7.456;2023-08-31T07:53:24;23.59;49.80
22917;DHT22;11624;53.250;7.456;2023-08-31T07:55:56;23.61;48.31
22917;DHT22;11624;53.250;7.456;2023-08-31T07:58:24;23.59;49.28
22917;DHT22;11624;53.250;7.456;2023-08-31T08:00:53;23.71;48.91
22917;DHT22;11624;53.250;7.456;2023-08-31T08:03:23;23.91;49.24
22917;DHT22;11624;53.250;7.456;2023-08-31T08:05:52;24.06;48.24
22917;DHT22;11624;53.250;7.456;2023-08-31T08:08:20;24.16;48.11
22917;DHT22;11624;53.250;7.456;2023-08-31T08:10:52;24.20;47.43
22917;DHT22;11624;53.250;7.456;2023-08-31T08:13:20;24.23;47.22
22917;DHT22;11624;53.250;7.456;2023-08-31T08:15:48;24.23;47.15
22917;DHT22;11624;53.250;7.456;2023-08-31T08:18:17;24.25;46.79
22917;DHT22;11624;53.250;7.456;2023-08-31T08:20:49;24.21;47.18
22917;DHT22;11624;53.250;7.456;2023-08-31T08:23:17;24.31;47.67
22917;DHT22;11624;53.250;7.456;2023-08-31T08:25:46;24.48;47.76
22917;DHT22;11624;53.250;7.456;2023-08-31T08:28:14;24.77;47.32
22917;DHT22;11624;53.250;7.456;2023-08-31T08:30:42;25.03;45.77
22917;DHT22;11624;53.250;7.456;2023-08-31T08:33:10;25.05;45.54
22917;DHT22;11624;53.250;7.456;2023-08-31T08:35:39;25.09;45.73
22917;DHT22;11624;53.250;7.456;2023-08-31T08:38:08;25.19;45.28
22917;DHT22;11624;53.250;7.456;2023-08-31T08:40:36;25.09;45.03
22917;DHT22;11624;53.250;7.456;2023-08-31T08:43:07;25.10;45.54
22917;DHT22;11624;53.250;7.456;2023-08-31T08:45:37;25.24;45.48
22917;DHT22;11624;53.250;7.456;2023-08-31T08:48:08;25.27;44.90
22917;DHT22;11624;53.250;7.456;2023-08-31T08:50:37;25.27;44.61
22917;DHT22;11624;53.250;7.456;2023-08-31T08:53:05;25.30;45.34
22917;DHT22;11624;53.250;7.456;2023-08-31T08:55:35;25.48;45.18
22917;DHT22;11624;53.250;7.456;2023-08-31T08:58:03;25.59;44.52
22917;DHT22;11624;53.250;7.456;2023-08-31T09:00:32;25.67;43.55
22917;DHT22;11624;53.250;7.456;2023-08-31T09:03:01;25.77;42.97
22917;DHT22;11624;53.250;7.456;2023-08-31T09:05:31;25.59;42.73
22917;DHT22;11624;53.250;7.456;2023-08-31T09:08:04;25.69;43.06
22917;DHT22;11624;53.250;7.456;2023-08-31T09:10:36;25.77;42.68
22917;DHT22;11624;53.250;7.456;2023-08-31T09:13:05;25.69;43.14
22917;DHT22;11624;53.250;7.456;2023-08-31T09:15:42;25.83;41.79
22917;DHT22;11624;53.250;7.456;2023-08-31T09:18:15;25.89;41.68
22917;DHT22;11624;53.250;7.456;2023-08-31T09:20:45;26.19;41.44
22917;DHT22;11624;53.250;7.456;2023-08-31T09:23:13;26.47;41.42
22917;DHT22;11624;53.250;7.456;2023-08-31T09:25:44;26.93;40.91
22917;DHT22;11624;53.250;7.456;2023-08-31T09:28:12;27.10;38.24
22917;DHT22;11624;53.250;7.456;2023-08-31T09:30:41;26.77;38.53
22917;DHT22;11624;53.250;7.456;2023-08-31T09:33:13;26.47;40.17
22917;DHT22;11624;53.250;7.456;2023-08-31T09:35:48;26.46;38.85
22917;DHT22;11624;53.250;7.456;2023-08-31T09:38:17;26.26;38.35
22917;DHT22;11624;53.250;7.456;2023-08-31T09:40:46;25.72;39.05
22917;DHT22;11624;53.250;7.456;2023-08-31T09:43:22;25.29;38.50
22917;DHT22;11624;53.250;7.456;2023-08-31T09:45:52;24.93;39.82
22917;DHT22;11624;53.250;7.456;2023-08-31T09:48:22;24.64;41.87
22917;DHT22;11624;53.250;7.456;2023-08-31T09:50:51;24.46;43.18
22917;DHT22;11624;53.250;7.456;2023-08-31T09:53:20;24.26;44.20
22917;DHT22;11624;53.250;7.456;2023-08-31T09:55:51;24.27;45.90
22917;DHT22;11624;53.250;7.456;2023-08-31T09:58:20;24.56;46.47
22917;DHT22;11624;53.250;7.456;2023-08-31T10:00:50;24.98;46.92
22917;DHT22;11624;53.250;7.456;2023-08-31T10:03:20;25.59;45.81
22917;DHT22;11624;53.250;7.456;2023-08-31T10:05:49;25.78;42.00
22917;DHT22;11624;53.250;7.456;2023-08-31T10:08:18;25.36;42.39
22917;DHT22;11624;53.250;7.456;2023-08-31T10:10:46;24.92;43.03
22917;DHT22;11624;53.250;7.456;2023-08-31T10:13:17;24.55;44.42
22917;DHT22;11624;53.250;7.456;2023-08-31T10:15:49;24.51;46.91
22917;DHT22;11624;53.250;7.456;2023-08-31T10:18:17;24.94;45.99
22917;DHT22;11624;53.250;7.456;2023-08-31T10:20:45;25.01;43.89
22917;DHT22;11624;53.250;7.456;2023-08-31T10:23:13;25.09;45.82
22917;DHT22;11624;53.250;7.456;2023-08-31T10:26:02;25.90;44.63
22917;DHT22;11624;53.250;7.456;2023-08-31T10:28:40;26.65;42.82
22917;DHT22;11624;53.250;7.456;2023-08-31T10:31:10;27.44;40.96
22917;DHT22;11624;53.250;7.456;2023-08-31T10:33:41;28.08;38.32
22917;DHT22;11624;53.250;7.456;2023-08-31T10:36:11;28.20;36.22
22917;DHT22;11624;53.250;7.456;2023-08-31T10:38:39;27.69;36.02
22917;DHT22;11624;53.250;7.456;2023-08-31T10:41:21;26.58;36.06
22917;DHT22;11624;53.250;7.456;2023-08-31T10:43:52;25.65;38.90
22917;DHT22;11624;53.250;7.456;2023-08-31T10:46:31;24.78;41.26
22917;DHT22;11624;53.250;7.456;2023-08-31T10:49:01;24.18;42.88
22917;DHT22;11624;53.250;7.456;2023-08-31T10:51:42;23.69;44.32
22917;DHT22;11624;53.250;7.456;2023-08-31T10:54:12;23.50;44.96
22917;DHT22;11624;53.250;7.456;2023-08-31T10:56:55;23.40;45.62
22917;DHT22;11624;53.250;7.456;2023-08-31T10:59:48;23.88;47.93
22917;DHT22;11624;53.250;7.456;2023-08-31T11:02:44;24.61;46.32
22917;DHT22;11624;53.250;7.456;2023-08-31T11:05:14;24.47;45.51
22917;DHT22;11624;53.250;7.456;2023-08-31T11:07:44;24.23;46.31
22917;DHT22;11624;53.250;7.456;2023-08-31T11:10:15;24.01;47.30
22917;DHT22;11624;53.250;7.456;2023-08-31T11:12:45;23.89;47.92
22917;DHT22;11624;53.250;7.456;2023-08-31T11:15:16;23.83;48.02
22917;DHT22;11624;53.250;7.456;2023-08-31T11:17:45;23.74;48.07
22917;DHT22;11624;53.250;7.456;2023-08-31T11:20:14;23.71;47.84
22917;DHT22;11624;53.250;7.456;2023-08-31T11:22:44;23.72;47.92
22917;DHT22;11624;53.250;7.456;2023-08-31T11:25:14;23.85;47.54
22917;DHT22;11624;53.250;7.456;2023-08-31T11:27:42;24.06;47.99
22917;DHT22;11624;53.250;7.456;2023-08-31T11:30:14;24.25;47.19
22917;DHT22;11624;53.250;7.456;2023-08-31T11:32:48;24.56;47.60
22917;DHT22;11624;53.250;7.456;2023-08-31T11:35:18;25.08;46.32
22917;DHT22;11624;53.250;7.456;2023-08-31T11:37:50;25.66;46.37
22917;DHT22;11624;53.250;7.456;2023-08-31T11:40:18;26.26;44.53
22917;DHT22;11624;53.250;7.456;2023-08-31T11:42:48;26.65;42.76
22917;DHT22;11624;53.250;7.456;2023-08-31T11:45:17;26.89;41.18
22917;DHT22;11624;53.250;7.456;2023-08-31T11:47:48;26.53;40.80
22917;DHT22;11624;53.250;7.456;2023-08-31T11:50:17;25.90;42.41
22917;DHT22;11624;53.250;7.456;2023-08-31T11:52:46;24.89;43.08
22917;DHT22;11624;53.250;7.456;2023-08-31T11:55:15;23.80;45.29
22917;DHT22;11624;53.250;7.456;2023-08-31T11:57:49;22.82;46.81
22917;DHT22;11624;53.250;7.456;2023-08-31T12:00:18;22.34;48.47
22917;DHT22;11624;53.250;7.456;2023-08-31T12:02:56;22.05;48.66
22917;DHT22;11624;53.250;7.456;2023-08-31T12:05:25;21.88;49.88
22917;DHT22;11624;53.250;7.456;2023-08-31T12:07:53;21.81;50.21
22917;DHT22;11624;53.250;7.456;2023-08-31T12:10:24;21.82;50.53
22917;DHT22;11624;53.250;7.456;2023-08-31T12:12:53;21.88;50.86
22917;DHT22;11624;53.250;7.456;2023-08-31T12:15:23;21.97;51.17
22917;DHT22;11624;53.250;7.456;2023-08-31T12:17:51;22.13;51.66
22917;DHT22;11624;53.250;7.456;2023-08-31T12:20:26;22.34;51.59
22917;DHT22;11624;53.250;7.456;2023-08-31T12:22:54;22.47;52.30
22917;DHT22;11624;53.250;7.456;2023-08-31T12:25:22;22.65;52.80
22917;DHT22;11624;53.250;7.456;2023-08-31T12:27:51;22.96;53.31
22917;DHT22;11624;53.250;7.456;2023-08-31T12:30:19;23.28;53.46
22917;DHT22;11624;53.250;7.456;2023-08-31T12:32:47;23.90;54.39
22917;DHT22;11624;53.250;7.456;2023-08-31T12:35:15;24.88;53.16
22917;DHT22;11624;53.250;7.456;2023-08-31T12:37:45;25.54;49.21
22917;DHT22;11624;53.250;7.456;2023-08-31T12:40:13;25.52;47.09
22917;DHT22;11624;53.250;7.456;2023-08-31T12:42:42;25.37;46.67
22917;DHT22;11624;53.250;7.456;2023-08-31T12:45:10;25.04;46.39
22917;DHT22;11624;53.250;7.456;2023-08-31T12:47:38;24.45;47.11
22917;DHT22;11624;53.250;7.456;2023-08-31T12:50:06;23.84;48.07
22917;DHT22;11624;53.250;7.456;2023-08-31T12:52:35;23.34;49.44
22917;DHT22;11624;53.250;7.456;2023-08-31T12:55:04;23.10;50.42
22917;DHT22;11624;53.250;7.456;2023-08-31T12:57:33;23.00;51.30
22917;DHT22;11624;53.250;7.456;2023-08-31T13:00:01;23.02;51.93
22917;DHT22;11624;53.250;7.456;2023-08-31T13:02:31;23.07;51.83
22917;DHT22;11624;53.250;7.456;2023-08-31T13:05:00;23.07;51.72
22917;DHT22;11624;53.250;7.456;2023-08-31T13:07:28;23.02;51.62
22917;DHT22;11624;53.250;7.456;2023-08-31T13:09:56;23.03;51.94
22917;DHT22;11624;53.250;7.456;2023-08-31T13:12:25;23.09;52.07
22917;DHT22;11624;53.250;7.456;2023-08-31T13:14:54;23.15;52.28
22917;DHT22;11624;53.250;7.456;2023-08-31T13:17:22;23.70;51.47
22917;DHT22;11624;53.250;7.456;2023-08-31T13:19:53;24.25;49.58
22917;DHT22;11624;53.250;7.456;2023-08-31T13:22:21;24.87;48.85
22917;DHT22;11624;53.250;7.456;2023-08-31T13:24:49;25.45;46.47
22917;DHT22;11624;53.250;7.456;2023-08-31T13:27:18;25.67;45.64
22917;DHT22;11624;53.250;7.456;2023-08-31T13:29:48;25.83;44.42
22917;DHT22;11624;53.250;7.456;2023-08-31T13:32:16;25.89;44.30
22917;DHT22;11624;53.250;7.456;2023-08-31T13:34:44;25.77;44.03
22917;DHT22;11624;53.250;7.456;2023-08-31T13:37:12;25.86;44.60
22917;DHT22;11624;53.250;7.456;2023-08-31T13:39:40;25.72;43.32
22917;DHT22;11624;53.250;7.456;2023-08-31T13:42:08;25.63;43.16
22917;DHT22;11624;53.250;7.456;2023-08-31T13:44:36;25.39;43.10
22917;DHT22;11624;53.250;7.456;2023-08-31T13:47:06;25.13;43.76
22917;DHT22;11624;53.250;7.456;2023-08-31T13:49:34;24.78;44.39
22917;DHT22;11624;53.250;7.456;2023-08-31T13:52:02;24.58;45.34
22917;DHT22;11624;53.250;7.456;2023-08-31T13:54:33;24.38;45.88
22917;DHT22;11624;53.250;7.456;2023-08-31T13:57:01;24.28;46.02
22917;DHT22;11624;53.250;7.456;2023-08-31T13:59:29;24.21;45.93
22917;DHT22;11624;53.250;7.456;2023-08-31T14:01:57;24.08;45.88
22917;DHT22;11624;53.250;7.456;2023-08-31T14:04:27;23.95;46.25
22917;DHT22;11624;53.250;7.456;2023-08-31T14:06:56;23.83;46.72
22917;DHT22;11624;53.250;7.456;2023-08-31T14:09:24;23.72;46.78
22917;DHT22;11624;53.250;7.456;2023-08-31T14:11:53;23.66;46.83
22917;DHT22;11624;53.250;7.456;2023-08-31T14:14:22;23.60;46.66
22917;DHT22;11624;53.250;7.456;2023-08-31T14:16:50;23.85;46.89
22917;DHT22;11624;53.250;7.456;2023-08-31T14:19:18;24.44;46.15
22917;DHT22;11624;53.250;7.456;2023-08-31T14:21:49;25.05;43.70
22917;DHT22;11624;53.250;7.456;2023-08-31T14:24:19;25.32;43.44
22917;DHT22;11624;53.250;7.456;2023-08-31T14:26:47;25.36;43.42
22917;DHT22;11624;53.250;7.456;2023-08-31T14:29:15;25.51;43.45
22917;DHT22;11624;53.250;7.456;2023-08-31T14:31:43;25.51;43.35
22917;DHT22;11624;53.250;7.456;2023-08-31T14:34:11;25.42;43.51
22917;DHT22;11624;53.250;7.456;2023-08-31T14:36:39;25.25;44.40
22917;DHT22;11624;53.250;7.456;2023-08-31T14:39:09;25.37;44.90
22917;DHT22;11624;53.250;7.456;2023-08-31T14:41:37;25.46;44.73
22917;DHT22;11624;53.250;7.456;2023-08-31T14:44:05;25.38;44.51
22917;DHT22;11624;53.250;7.456;2023-08-31T14:46:33;25.14;44.52
22917;DHT22;11624;53.250;7.456;2023-08-31T14:49:01;24.90;44.99
22917;DHT22;11624;53.250;7.456;2023-08-31T14:51:31;24.68;45.51
22917;DHT22;11624;53.250;7.456;2023-08-31T14:53:59;24.59;46.14
22917;DHT22;11624;53.250;7.456;2023-08-31T14:56:29;24.47;46.39
22917;DHT22;11624;53.250;7.456;2023-08-31T14:58:57;24.49;46.94
22917;DHT22;11624;53.250;7.456;2023-08-31T15:01:25;24.48;46.93
22917;DHT22;11624;53.250;7.456;2023-08-31T15:03:53;24.47;47.15
22917;DHT22;11624;53.250;7.456;2023-08-31T15:06:21;24.49;47.26
22917;DHT22;11624;53.250;7.456;2023-08-31T15:08:49;24.41;47.43
22917;DHT22;11624;53.250;7.456;2023-08-31T15:11:17;24.29;47.80
22917;DHT22;11624;53.250;7.456;2023-08-31T15:13:47;24.44;48.29
22917;DHT22;11624;53.250;7.456;2023-08-31T15:16:15;24.77;47.44
22917;DHT22;11624;53.250;7.456;2023-08-31T15:18:43;24.95;46.06
22917;DHT22;11624;53.250;7.456;2023-08-31T15:21:14;24.87;45.57
22917;DHT22;11624;53.250;7.456;2023-08-31T15:23:42;24.71;45.95
22917;DHT22;11624;53.250;7.456;2023-08-31T15:26:10;24.65;46.09
22917;DHT22;11624;53.250;7.456;2023-08-31T15:28:40;24.61;46.24
22917;DHT22;11624;53.250;7.456;2023-08-31T15:31:11;24.56;46.71
22917;DHT22;11624;53.250;7.456;2023-08-31T15:33:40;24.69;46.64
22917;DHT22;11624;53.250;7.456;2023-08-31T15:36:09;24.82;46.71
22917;DHT22;11624;53.250;7.456;2023-08-31T15:38:37;24.88;46.93
22917;DHT22;11624;53.250;7.456;2023-08-31T15:41:06;25.00;47.35
22917;DHT22;11624;53.250;7.456;2023-08-31T15:43:35;25.19;46.62
22917;DHT22;11624;53.250;7.456;2023-08-31T15:46:05;25.36;46.49
22917;DHT22;11624;53.250;7.456;2023-08-31T15:48:35;25.48;45.33